Time;durP1;ratioP1;P1;durP2;ratioP2;P2;SDS_P1;SDS_P2;PMS_P1;PMS_P2;Temp;Humidity;BMP_temperature;BMP_pressure;BME280_temperature;BME280_humidity;BME280_pressure;Samples;Min_cycle;Max_cycle;Signal;HPM_P1;HPM_P2
2022/07/30 00:00:23;;;;;;;7.23;6.40;;;;;;;17.41;100.00;100122.88;4966062;28;20670;-73
2022/07/30 00:02:49;;;;;;;9.00;6.77;;;;;;;17.35;100.00;100128.56;4986553;28;20186;-73
2022/07/30 00:05:15;;;;;;;7.23;6.40;;;;;;;17.30;100.00;100120.34;4974390;28;20192;-73
2022/07/30 00:07:40;;;;;;;8.03;7.17;;;;;;;17.31;100.00;100124.59;4973250;28;20216;-72
2022/07/30 00:10:06;;;;;;;7.53;6.90;;;;;;;17.33;100.00;100126.09;4964817;28;20255;-73
2022/07/30 00:12:31;;;;;;;8.03;6.63;;;;;;;17.29;100.00;100114.31;4988988;28;20318;-73
2022/07/30 00:14:56;;;;;;;8.10;7.00;;;;;;;17.16;100.00;100117.09;4974160;28;20206;-73
2022/07/30 00:17:22;;;;;;;12.53;7.33;;;;;;;17.10;100.00;100109.81;4972639;28;20215;-74
2022/07/30 00:19:47;;;;;;;8.67;7.10;;;;;;;17.06;100.00;100111.00;4973887;28;20203;-72
2022/07/30 00:22:12;;;;;;;8.00;7.20;;;;;;;17.01;100.00;100116.56;4979083;28;20223;-72
2022/07/30 00:24:38;;;;;;;8.47;7.37;;;;;;;16.99;100.00;100115.06;4972863;28;20202;-72
2022/07/30 00:27:04;;;;;;;9.90;7.60;;;;;;;16.94;100.00;100102.44;4974100;28;20594;-73
2022/07/30 00:29:29;;;;;;;12.07;7.60;;;;;;;16.90;100.00;100098.41;4973636;28;20266;-72
2022/07/30 00:31:55;;;;;;;7.83;7.00;;;;;;;16.80;100.00;100097.53;4977841;28;20245;-70
2022/07/30 00:34:20;;;;;;;9.00;7.27;;;;;;;16.77;100.00;100090.81;4974894;28;20287;-73
2022/07/30 00:36:45;;;;;;;11.43;7.20;;;;;;;16.70;100.00;100087.03;4972715;28;20313;-73
2022/07/30 00:39:11;;;;;;;9.17;8.03;;;;;;;16.62;100.00;100082.44;4973456;28;20182;-73
2022/07/30 00:42:01;;;;;;;8.47;6.80;;;;;;;16.30;100.00;100078.88;4961880;28;20318;-73
2022/07/30 00:44:27;;;;;;;15.13;8.40;;;;;;;16.34;100.00;100078.66;4973778;28;20291;-72
2022/07/30 00:46:54;;;;;;;11.60;6.40;;;;;;;16.28;100.00;100070.38;4972582;28;20282;-73
2022/07/30 00:49:20;;;;;;;9.63;7.53;;;;;;;16.26;100.00;100076.63;4973335;28;20243;-73
2022/07/30 00:51:46;;;;;;;10.83;7.40;;;;;;;16.29;100.00;100077.22;4981485;28;20251;-73
2022/07/30 00:54:11;;;;;;;9.30;7.40;;;;;;;16.33;100.00;100079.59;4988261;28;20354;-73
2022/07/30 00:56:37;;;;;;;9.47;7.27;;;;;;;16.36;100.00;100081.94;4973510;28;20216;-73
2022/07/30 00:59:03;;;;;;;12.57;8.07;;;;;;;16.32;100.00;100073.56;4972941;28;20635;-73
2022/07/30 01:01:31;;;;;;;9.03;8.13;;;;;;;16.33;100.00;100077.81;4964837;28;20640;-73
2022/07/30 01:03:57;;;;;;;8.17;7.40;;;;;;;16.34;100.00;100076.88;4988675;28;20176;-72
2022/07/30 01:06:22;;;;;;;7.90;6.87;;;;;;;16.33;100.00;100079.59;4988200;28;20724;-72
2022/07/30 01:08:47;;;;;;;9.87;8.07;;;;;;;16.25;100.00;100075.81;4972651;28;20208;-72
2022/07/30 01:11:13;;;;;;;7.70;6.90;;;;;;;16.27;100.00;100076.53;4971899;28;20250;-73
2022/07/30 01:13:38;;;;;;;8.80;6.70;;;;;;;16.22;100.00;100070.88;4979361;28;20298;-73
2022/07/30 01:16:04;;;;;;;18.50;8.37;;;;;;;16.21;100.00;100073.59;4973558;28;20180;-73
2022/07/30 01:21:23;;;;;;;8.27;7.40;;;;;;;16.13;100.00;100079.38;4954592;28;20298;-72
2022/07/30 01:23:52;;;;;;;9.17;7.37;;;;;;;16.00;100.00;100076.94;4971903;28;20176;-73
2022/07/30 01:26:19;;;;;;;8.43;7.63;;;;;;;15.94;100.00;100078.22;4972746;28;20678;-72
2022/07/30 01:28:48;;;;;;;8.83;7.07;;;;;;;15.83;100.00;100080.81;4968355;28;20188;-73
2022/07/30 01:31:15;;;;;;;10.27;7.07;;;;;;;15.93;100.00;100080.94;4965629;28;20249;-73
2022/07/30 01:33:43;;;;;;;9.50;6.63;;;;;;;15.93;100.00;100089.53;4978854;28;20180;-73
2022/07/30 01:36:13;;;;;;;10.93;7.90;;;;;;;15.99;100.00;100083.06;4972822;28;20647;-73
2022/07/30 01:38:41;;;;;;;8.77;7.67;;;;;;;16.01;100.00;100088.94;4972295;28;20184;-73
2022/07/30 01:41:08;;;;;;;12.43;7.90;;;;;;;16.00;100.00;100086.47;4967223;28;20238;-73
2022/07/30 01:43:34;;;;;;;8.23;7.43;;;;;;;16.04;100.00;100082.69;4983558;28;20188;-72
2022/07/30 01:46:02;;;;;;;7.80;7.10;;;;;;;16.03;100.00;100086.25;4971449;28;20222;-72
2022/07/30 01:48:31;;;;;;;7.67;6.87;;;;;;;16.03;100.00;100083.66;4973125;28;20199;-72
2022/07/30 01:50:59;;;;;;;7.20;6.50;;;;;;;16.16;100.00;100086.91;4969515;28;20504;-73
2022/07/30 01:53:30;;;;;;;8.73;6.10;;;;;;;16.25;100.00;100094.00;4987640;28;20188;-73
2022/07/30 01:55:57;;;;;;;8.50;7.43;;;;;;;16.21;100.00;100094.34;4971944;28;20199;-73
2022/07/30 01:58:26;;;;;;;8.37;6.10;;;;;;;16.27;100.00;100092.13;4971605;28;20196;-73
2022/07/30 02:00:54;;;;;;;9.17;6.73;;;;;;;16.27;100.00;100091.28;4968682;28;20286;-73
2022/07/30 02:03:19;;;;;;;9.37;6.60;;;;;;;16.30;100.00;100093.66;4987389;28;20176;-73
2022/07/30 02:05:52;;;;;;;11.97;6.93;;;;;;;16.27;100.00;100097.31;4972841;28;20251;-73
2022/07/30 02:08:26;;;;;;;7.07;6.47;;;;;;;16.27;100.00;100091.28;4972252;28;20216;-72
2022/07/30 02:10:59;;;;;;;10.17;7.00;;;;;;;16.22;100.00;100107.19;4979972;28;20231;-73
2022/07/30 02:13:27;;;;;;;11.30;6.87;;;;;;;16.20;100.00;100101.31;4980266;28;20236;-73
2022/07/30 02:15:55;;;;;;;14.70;13.30;;;;;;;16.20;100.00;100108.25;4972562;28;20192;-72
2022/07/30 02:18:31;;;;;;;8.87;7.47;;;;;;;16.08;100.00;100108.28;4972291;28;20180;-73
2022/07/30 02:21:08;;;;;;;9.20;6.60;;;;;;;15.93;100.00;100099.91;4969682;28;20223;-73
2022/07/30 02:23:45;;;;;;;9.60;5.70;;;;;;;15.91;100.00;100104.38;4972485;28;20184;-72
2022/07/30 02:26:17;;;;;;;10.83;6.23;;;;;;;15.94;100.00;100092.97;4976129;28;20212;-73
2022/07/30 02:28:44;;;;;;;9.00;6.20;;;;;;;15.92;100.00;100094.84;4990517;28;20192;-73
2022/07/30 02:31:11;;;;;;;8.87;6.40;;;;;;;15.93;100.00;100099.09;4984187;28;20219;-73
2022/07/30 02:33:39;;;;;;;9.47;8.33;;;;;;;15.87;100.00;100096.97;4982850;28;20191;-73
2022/07/30 02:36:06;;;;;;;8.77;7.23;;;;;;;15.68;100.00;100103.53;4976000;28;20180;-73
2022/07/30 02:38:33;;;;;;;12.47;8.10;;;;;;;15.73;100.00;100113.56;4975833;28;20188;-72
2022/07/30 02:41:01;;;;;;;12.20;7.73;;;;;;;15.74;100.00;100121.22;4959309;28;20239;-73
2022/07/30 02:43:29;;;;;;;8.33;7.40;;;;;;;15.72;100.00;100110.13;4974877;28;20381;-73
2022/07/30 02:45:55;;;;;;;9.10;7.27;;;;;;;15.59;100.00;100112.84;4975852;28;20212;-73
2022/07/30 02:48:22;;;;;;;9.23;7.53;;;;;;;15.53;100.00;100123.69;4974288;28;20191;-73
2022/07/30 02:50:50;;;;;;;12.63;7.63;;;;;;;15.43;100.00;100113.16;4971060;28;20599;-74
2022/07/30 02:53:18;;;;;;;10.77;6.67;;;;;;;15.24;100.00;100120.66;4990668;28;20180;-73
2022/07/30 02:55:45;;;;;;;12.40;8.27;;;;;;;15.12;100.00;100123.22;4974436;28;20199;-74
2022/07/30 02:58:14;;;;;;;8.20;6.97;;;;;;;15.09;100.00;100132.97;4975316;28;20710;-73
2022/07/30 03:00:41;;;;;;;8.70;7.80;;;;;;;15.09;100.00;100135.56;4960522;28;20745;-73
2022/07/30 03:03:09;;;;;;;7.87;7.03;;;;;;;15.03;100.00;100136.00;4985941;28;20267;-74
2022/07/30 03:05:35;;;;;;;9.70;8.23;;;;;;;15.03;100.00;100130.84;4975488;28;20212;-73
2022/07/30 03:08:01;;;;;;;8.43;7.03;;;;;;;15.09;100.00;100130.38;4969262;28;20299;-73
2022/07/30 03:10:27;;;;;;;10.40;7.50;;;;;;;15.05;100.00;100129.78;4955047;28;20224;-73
2022/07/30 03:12:55;;;;;;;10.83;7.40;;;;;;;15.19;100.00;100135.72;4984089;28;20307;-74
2022/07/30 03:15:20;;;;;;;9.27;7.53;;;;;;;15.22;100.00;100130.28;4982751;28;20665;-73
2022/07/30 03:17:50;;;;;;;15.53;8.03;;;;;;;15.23;100.00;100130.22;4974082;28;20176;-74
2022/07/30 03:20:20;;;;;;;10.83;6.97;;;;;;;15.29;100.00;100126.31;4962318;28;20184;-74
2022/07/30 03:22:50;;;;;;;11.03;8.63;;;;;;;15.17;100.00;100126.28;4984236;28;20545;-73
2022/07/30 03:25:18;;;;;;;9.97;8.33;;;;;;;15.21;100.00;100132.06;4975147;28;20282;-73
2022/07/30 03:27:45;;;;;;;8.93;8.13;;;;;;;15.02;100.00;100132.59;4989780;28;20180;-72
2022/07/30 03:30:11;;;;;;;9.47;8.43;;;;;;;14.83;100.00;100136.53;4941046;28;20272;-73
2022/07/30 03:32:37;;;;;;;11.40;8.47;;;;;;;14.71;100.00;100133.97;4976765;28;20220;-72
2022/07/30 03:35:05;;;;;;;10.00;7.60;;;;;;;14.81;100.00;100138.38;4985846;28;20636;-72
2022/07/30 03:37:30;;;;;;;12.87;8.07;;;;;;;14.92;100.00;100140.22;4974862;28;20184;-73
2022/07/30 03:39:57;;;;;;;9.77;8.10;;;;;;;14.90;100.00;100126.53;4968594;28;20196;-73
2022/07/30 03:42:23;;;;;;;7.47;6.70;;;;;;;14.92;100.00;100139.38;4972376;28;20231;-73
2022/07/30 03:44:49;;;;;;;10.37;8.37;;;;;;;14.99;100.00;100131.03;4974616;28;20196;-74
2022/07/30 03:47:16;;;;;;;7.33;6.77;;;;;;;14.91;100.00;100130.78;4975165;28;20283;-73
2022/07/30 03:49:41;;;;;;;10.37;8.40;;;;;;;14.85;100.00;100129.44;4974167;28;20183;-74
2022/07/30 03:52:07;;;;;;;8.80;7.17;;;;;;;14.91;100.00;100138.56;4971837;28;20310;-74
2022/07/30 03:54:33;;;;;;;10.53;7.50;;;;;;;14.92;100.00;100147.13;4984457;28;20180;-73
2022/07/30 03:57:00;;;;;;;9.03;7.87;;;;;;;14.79;100.00;100145.44;4973554;28;20195;-73
2022/07/30 03:59:26;;;;;;;12.50;7.73;;;;;;;14.68;100.00;100151.38;4973254;28;20263;-74
2022/07/30 04:01:52;;;;;;;8.00;7.20;;;;;;;14.73;100.00;100164.00;4966677;28;20625;-73
2022/07/30 04:04:17;;;;;;;9.37;7.13;;;;;;;14.81;100.00;100168.63;4973254;28;20246;-73
2022/07/30 04:06:42;;;;;;;8.67;7.47;;;;;;;14.84;100.00;100171.00;4973120;28;20199;-74
2022/07/30 04:09:09;;;;;;;11.67;6.93;;;;;;;14.90;100.00;100167.97;4974233;28;20210;-73
2022/07/30 04:11:35;;;;;;;11.23;8.27;;;;;;;14.84;100.00;100176.19;4975996;28;20373;-74
2022/07/30 04:14:01;;;;;;;8.87;7.43;;;;;;;14.84;100.00;100178.78;4972986;28;20299;-74
2022/07/30 04:16:50;;;;;;;15.43;8.30;;;;;;;14.55;100.00;100173.88;4974340;28;20343;-74
2022/07/30 04:19:22;;;;;;;8.77;6.83;;;;;;;14.69;100.00;100183.28;4973936;28;20187;-73
2022/07/30 04:21:50;;;;;;;10.00;7.87;;;;;;;14.65;100.00;100180.06;4977349;28;20306;-74
2022/07/30 04:24:17;;;;;;;9.57;7.87;;;;;;;14.62;100.00;100187.19;4975397;28;20221;-73
2022/07/30 04:26:43;;;;;;;8.40;7.60;;;;;;;14.66;100.00;100192.09;4972511;28;20250;-73
2022/07/30 04:29:10;;;;;;;11.57;6.73;;;;;;;14.74;100.00;100186.38;4971993;28;20231;-73
2022/07/30 04:31:35;;;;;;;8.37;7.47;;;;;;;14.85;100.00;100186.44;4975368;28;20223;-73
2022/07/30 04:34:03;;;;;;;10.47;7.70;;;;;;;14.98;100.00;100196.75;4977020;28;20188;-74
2022/07/30 04:36:30;;;;;;;10.57;8.23;;;;;;;15.11;100.00;100191.50;4973834;28;20199;-73
2022/07/30 04:38:56;;;;;;;9.67;7.40;;;;;;;15.22;100.00;100197.66;4973192;28;20190;-74
2022/07/30 04:41:22;;;;;;;10.27;7.67;;;;;;;15.25;100.00;100200.88;4952096;28;20250;-73
2022/07/30 04:43:48;;;;;;;11.70;7.53;;;;;;;15.31;100.00;100199.59;4978858;28;20674;-73
2022/07/30 04:46:13;;;;;;;10.97;7.07;;;;;;;15.43;100.00;100206.47;4972962;28;20283;-73
2022/07/30 04:48:38;;;;;;;8.90;7.77;;;;;;;15.56;100.00;100203.81;4971914;28;20635;-73
2022/07/30 04:51:11;;;;;;;7.80;7.00;;;;;;;15.64;100.00;100205.81;4971515;28;20230;-72
2022/07/30 04:53:37;;;;;;;8.20;7.07;;;;;;;15.75;100.00;100207.63;4988539;28;20191;-72
2022/07/30 04:56:04;;;;;;;9.83;7.47;;;;;;;15.96;100.00;100208.66;4973733;28;20180;-73
2022/07/30 04:58:32;;;;;;;13.03;7.27;;;;;;;15.91;100.00;100207.34;4973422;28;20546;-69
2022/07/30 05:01:00;;;;;;;7.87;7.17;;;;;;;15.89;100.00;100214.41;4970346;28;20231;-72
2022/07/30 05:03:27;;;;;;;7.27;6.63;;;;;;;15.92;100.00;100204.63;4972056;28;20262;-71
2022/07/30 05:05:55;;;;;;;9.13;6.47;;;;;;;16.18;100.00;100219.97;4973574;28;20238;-71
2022/07/30 05:08:23;;;;;;;10.33;7.03;;;;;;;16.35;100.00;100210.91;4973326;28;20218;-71
2022/07/30 05:10:48;;;;;;;10.30;6.60;;;;;;;16.46;100.00;100220.47;4965349;28;20235;-71
2022/07/30 05:13:15;;;;;;;7.23;6.33;;;;;;;16.59;100.00;100218.56;4981869;28;20386;-70
2022/07/30 05:15:43;;;;;;;7.33;6.10;;;;;;;16.74;100.00;100216.53;4973239;28;20669;-71
2022/07/30 05:18:09;;;;;;;8.73;6.50;;;;;;;16.92;100.00;100222.06;4973453;28;20199;-70
2022/07/30 05:20:35;;;;;;;10.27;7.63;;;;;;;17.17;100.00;100222.72;4966984;28;20235;-71
2022/07/30 05:23:01;;;;;;;9.03;6.27;;;;;;;17.37;100.00;100221.09;4987847;28;20231;-71
2022/07/30 05:25:26;;;;;;;11.93;6.77;;;;;;;17.52;100.00;100224.22;4971442;28;20204;-71
2022/07/30 05:27:52;;;;;;;9.57;6.87;;;;;;;17.73;100.00;100228.63;4972761;28;20195;-70
2022/07/30 05:30:17;;;;;;;6.87;5.83;;;;;;;17.85;100.00;100226.75;4964437;28;20195;-70
2022/07/30 05:32:42;;;;;;;8.97;6.00;;;;;;;17.95;100.00;100217.28;4971628;28;20200;-71
2022/07/30 05:35:08;;;;;;;7.37;5.73;;;;;;;18.13;100.00;100227.09;4971505;28;20274;-71
2022/07/30 05:37:33;;;;;;;8.30;6.33;;;;;;;18.32;100.00;100224.56;4972868;28;20267;-71
2022/07/30 05:39:59;;;;;;;5.70;5.20;;;;;;;18.49;100.00;100228.34;4964465;28;20205;-70
2022/07/30 05:42:24;;;;;;;11.07;5.63;;;;;;;18.59;100.00;100220.53;4970529;28;20282;-71
2022/07/30 05:44:50;;;;;;;7.40;5.87;;;;;;;18.70;100.00;100224.81;4973108;28;20203;-71
2022/07/30 05:47:17;;;;;;;8.67;6.17;;;;;;;18.56;100.00;100223.44;4971613;28;20662;-71
2022/07/30 05:49:42;;;;;;;9.97;6.30;;;;;;;18.87;100.00;100228.56;4972508;28;20231;-71
2022/07/30 05:52:07;;;;;;;9.37;6.97;;;;;;;18.95;100.00;100233.13;4964111;28;20227;-71
2022/07/30 05:54:33;;;;;;;7.03;6.00;;;;;;;19.18;99.76;100237.13;4972963;28;20661;-70
2022/07/30 05:56:58;;;;;;;13.73;6.53;;;;;;;19.25;98.38;100242.66;4973076;28;20192;-71
2022/07/30 05:59:23;;;;;;;7.80;6.23;;;;;;;19.31;99.91;100236.88;4973695;28;20287;-70
2022/07/30 06:01:49;;;;;;;9.13;6.63;;;;;;;19.31;96.55;100244.72;4968271;28;20215;-71
2022/07/30 06:04:14;;;;;;;10.47;6.90;;;;;;;19.50;100.00;100241.25;4991889;28;20631;-70
2022/07/30 06:06:40;;;;;;;7.83;6.60;;;;;;;19.64;98.90;100239.19;4975540;28;20242;-70
2022/07/30 06:09:05;;;;;;;7.83;6.37;;;;;;;19.81;100.00;100240.28;4977027;28;20180;-71
2022/07/30 06:11:30;;;;;;;7.60;5.77;;;;;;;19.81;91.32;100246.31;4977571;28;20715;-69
2022/07/30 06:13:55;;;;;;;9.83;6.40;;;;;;;20.04;87.71;100247.81;4980832;28;20345;-70
2022/07/30 06:16:21;;;;;;;10.77;6.50;;;;;;;20.05;84.42;100252.06;4976450;28;20180;-70
2022/07/30 06:18:46;;;;;;;10.17;6.13;;;;;;;20.10;85.03;100247.22;4976792;28;20624;-70
2022/07/30 06:21:11;;;;;;;9.80;6.33;;;;;;;20.06;83.07;100245.88;4975782;28;20234;-70
2022/07/30 06:23:37;;;;;;;9.50;5.80;;;;;;;20.05;80.96;100250.25;4974993;28;20199;-70
2022/07/30 06:26:02;;;;;;;10.13;5.93;;;;;;;20.28;79.20;100242.91;4990943;28;20644;-70
2022/07/30 06:28:28;;;;;;;7.13;5.73;;;;;;;20.64;79.60;100245.63;4976460;28;20605;-71
2022/07/30 06:30:53;;;;;;;9.23;6.00;;;;;;;20.93;75.99;100249.88;4968051;28;20237;-71
2022/07/30 06:33:19;;;;;;;8.13;5.73;;;;;;;20.91;72.31;100243.16;4984866;28;20215;-72
2022/07/30 06:35:44;;;;;;;9.47;6.20;;;;;;;21.10;74.02;100250.06;4976021;28;20203;-72
2022/07/30 06:38:09;;;;;;;7.73;5.80;;;;;;;21.66;70.96;100252.53;4974438;28;20226;-72
2022/07/30 06:40:35;;;;;;;10.27;5.83;;;;;;;22.31;67.66;100243.41;4967076;28;20314;-72
2022/07/30 06:43:00;;;;;;;9.00;6.60;;;;;;;22.62;61.45;100243.72;4990912;28;20200;-71
2022/07/30 06:45:25;;;;;;;7.93;5.60;;;;;;;22.80;62.50;100259.34;4975998;28;20254;-72
2022/07/30 06:47:51;;;;;;;10.57;5.53;;;;;;;23.14;59.60;100258.44;4975713;28;20188;-73
2022/07/30 06:50:19;;;;;;;6.07;5.17;;;;;;;24.27;54.21;100261.34;4965555;28;20380;-72
2022/07/30 06:52:44;;;;;;;9.27;5.00;;;;;;;25.16;51.64;100257.63;4988727;28;20180;-72
2022/07/30 06:55:10;;;;;;;7.60;4.90;;;;;;;27.13;45.85;100270.50;4990271;28;20207;-72
2022/07/30 06:57:35;;;;;;;9.55;5.43;;;;;;;28.26;40.83;100272.38;4974362;28;20223;-72
2022/07/30 07:00:01;;;;;;;9.45;4.95;;;;;;;29.21;38.96;100271.69;4973411;28;20203;-72
2022/07/30 07:02:26;;;;;;;7.25;4.70;;;;;;;29.22;37.52;100280.44;4971032;28;20224;-73
2022/07/30 07:04:51;;;;;;;8.05;4.72;;;;;;;30.20;35.79;100276.28;4990196;28;20208;-73
2022/07/30 07:07:17;;;;;;;6.13;4.75;;;;;;;29.54;36.49;100272.72;4975372;28;20215;-73
2022/07/30 07:09:42;;;;;;;8.07;4.70;;;;;;;31.09;35.20;100279.16;4973076;28;20594;-73
2022/07/30 07:12:07;;;;;;;7.80;4.55;;;;;;;31.65;34.31;100279.38;4980292;28;20600;-73
2022/07/30 07:14:33;;;;;;;9.60;4.63;;;;;;;31.47;33.09;100278.25;4975396;28;20199;-73
2022/07/30 07:16:58;;;;;;;7.18;4.00;;;;;;;31.52;32.49;100277.63;4966910;28;20235;-72
2022/07/30 07:19:24;;;;;;;7.15;4.30;;;;;;;32.74;30.84;100280.59;4975318;28;20192;-73
2022/07/30 07:21:49;;;;;;;6.43;4.30;;;;;;;34.00;28.63;100281.44;4967001;28;20317;-73
2022/07/30 07:24:14;;;;;;;5.07;4.22;;;;;;;33.45;29.15;100286.09;4976400;28;20684;-72
2022/07/30 07:26:40;;;;;;;7.20;4.10;;;;;;;34.23;29.08;100284.06;4989880;28;20682;-72
2022/07/30 07:29:05;;;;;;;8.75;4.25;;;;;;;34.33;28.11;100282.66;4974584;28;20679;-73
2022/07/30 07:31:30;;;;;;;6.38;4.03;;;;;;;34.26;27.57;100278.25;4947338;28;20568;-73
2022/07/30 07:33:56;;;;;;;6.50;4.10;;;;;;;35.21;27.56;100280.50;4979285;28;20192;-72
2022/07/30 07:36:21;;;;;;;8.50;4.10;;;;;;;35.28;26.94;100287.53;4974719;28;20654;-73
2022/07/30 07:38:47;;;;;;;6.88;4.03;;;;;;;34.92;27.19;100287.78;4972635;28;20222;-73
2022/07/30 07:41:13;;;;;;;8.10;3.80;;;;;;;35.05;26.91;100287.44;4966261;28;20265;-73
2022/07/30 07:43:39;;;;;;;8.32;4.60;;;;;;;35.44;26.64;100288.63;4980954;28;20642;-73
2022/07/30 07:46:04;;;;;;;5.25;3.88;;;;;;;36.55;25.17;100299.44;4974310;28;20208;-72
2022/07/30 07:48:30;;;;;;;4.43;3.60;;;;;;;36.86;24.63;100297.06;4974710;28;20569;-73
2022/07/30 07:50:55;;;;;;;5.68;3.72;;;;;;;35.91;25.61;100295.44;4966106;28;20231;-73
2022/07/30 07:53:20;;;;;;;5.85;3.92;;;;;;;36.79;24.42;100290.03;4982578;28;20210;-73
2022/07/30 07:55:46;;;;;;;6.07;4.32;;;;;;;34.38;27.05;100288.91;4974370;28;20950;-73
2022/07/30 07:58:12;;;;;;;5.65;3.70;;;;;;;34.23;26.98;100285.94;4973266;28;20184;-73
2022/07/30 08:00:39;;;;;;;6.15;3.63;;;;;;;33.52;29.46;100289.47;4969193;28;20239;-72
2022/07/30 08:03:05;;;;;;;6.95;4.18;;;;;;;35.03;26.43;100294.91;4984545;28;20188;-73
2022/07/30 08:05:31;;;;;;;4.93;4.18;;;;;;;35.94;25.54;100290.41;4972829;28;20251;-73
2022/07/30 08:07:56;;;;;;;5.63;4.00;;;;;;;36.78;24.21;100299.13;4973000;28;20212;-73
2022/07/30 08:10:22;;;;;;;5.50;3.47;;;;;;;37.81;23.17;100291.03;4965935;28;20787;-73
2022/07/30 08:12:47;;;;;;;7.10;3.47;;;;;;;38.55;22.69;100294.56;4986394;28;20236;-74
2022/07/30 08:15:13;;;;;;;7.22;3.90;;;;;;;38.30;22.63;100292.59;4972430;28;20945;-73
2022/07/30 08:17:40;;;;;;;7.13;4.20;;;;;;;37.10;23.05;100300.19;4972660;28;20184;-73
2022/07/30 08:20:06;;;;;;;5.45;3.83;;;;;;;36.53;24.14;100291.63;4963610;28;20190;-73
2022/07/30 08:22:31;;;;;;;6.85;4.13;;;;;;;36.83;24.11;100291.13;4987555;28;20270;-73
2022/07/30 08:24:57;;;;;;;4.80;3.65;;;;;;;36.40;24.30;100292.84;4972418;28;20308;-73
2022/07/30 08:27:22;;;;;;;7.22;3.30;;;;;;;37.14;24.78;100294.09;4972487;28;20612;-73
2022/07/30 08:29:48;;;;;;;5.40;3.35;;;;;;;38.18;22.74;100290.13;4974181;28;20211;-73
2022/07/30 08:32:13;;;;;;;6.78;3.28;;;;;;;38.60;22.11;100291.03;4979100;28;20227;-74
2022/07/30 08:34:38;;;;;;;8.20;3.55;;;;;;;36.72;25.00;100293.94;4973753;28;20669;-73
2022/07/30 08:37:03;;;;;;;4.93;3.50;;;;;;;35.24;25.18;100295.22;4973530;28;20176;-73
2022/07/30 08:39:29;;;;;;;7.18;3.42;;;;;;;36.70;24.41;100290.72;4970696;28;20186;-73
2022/07/30 08:41:55;;;;;;;8.35;3.13;;;;;;;37.03;23.96;100287.03;4954025;28;20572;-74
2022/07/30 08:44:22;;;;;;;6.45;3.00;;;;;;;36.14;24.46;100289.03;4974331;28;20180;-73
2022/07/30 08:46:49;;;;;;;7.40;3.35;;;;;;;36.75;23.52;100296.13;4973857;28;20180;-73
2022/07/30 08:49:14;;;;;;;6.18;2.88;;;;;;;37.49;22.46;100283.06;4972321;28;20188;-73
2022/07/30 08:51:40;;;;;;;5.68;2.92;;;;;;;36.92;23.35;100296.06;4975626;28;20594;-73
2022/07/30 08:54:06;;;;;;;7.88;2.70;;;;;;;35.90;24.28;100289.28;4975572;28;20198;-73
2022/07/30 08:56:32;;;;;;;7.10;2.90;;;;;;;36.05;23.87;100288.69;4975818;28;20188;-73
2022/07/30 08:59:02;;;;;;;6.57;2.70;;;;;;;35.79;24.04;100284.84;4979166;28;20188;-74
2022/07/30 09:01:28;;;;;;;5.63;2.78;;;;;;;35.91;23.74;100287.41;4976389;28;20297;-73
2022/07/30 09:03:53;;;;;;;6.25;2.97;;;;;;;36.45;23.49;100289.41;4977525;28;20172;-73
2022/07/30 09:06:18;;;;;;;4.95;2.80;;;;;;;36.22;23.09;100285.94;4972571;28;20251;-73
2022/07/30 09:08:44;;;;;;;4.90;2.55;;;;;;;37.44;22.35;100290.03;4972350;28;20208;-73
2022/07/30 09:11:09;;;;;;;4.50;2.20;;;;;;;37.47;22.16;100284.16;4971430;28;20738;-74
2022/07/30 09:13:37;;;;;;;6.57;2.72;;;;;;;37.73;21.51;100284.28;4979225;28;20231;-73
2022/07/30 09:16:04;;;;;;;5.03;2.92;;;;;;;36.45;22.32;100294.78;4971538;28;20184;-74
2022/07/30 09:18:31;;;;;;;5.65;2.50;;;;;;;35.97;23.60;100286.41;4971513;28;20182;-73
2022/07/30 09:21:01;;;;;;;5.10;2.60;;;;;;;33.74;25.13;100291.53;4969527;28;20231;-73
2022/07/30 09:23:27;;;;;;;5.53;2.58;;;;;;;32.43;26.46;100291.22;4987676;28;20250;-72
2022/07/30 09:25:53;;;;;;;6.38;2.47;;;;;;;30.52;28.83;100279.06;4970322;28;20200;-73
2022/07/30 09:28:29;;;;;;;8.10;2.70;;;;;;;31.48;27.60;100277.25;4984559;28;20203;-73
2022/07/30 09:30:55;;;;;;;4.47;2.60;;;;;;;32.96;25.98;100291.56;4968663;28;20230;-73
2022/07/30 09:33:30;;;;;;;3.85;2.45;;;;;;;33.79;25.30;100278.34;4980864;28;20242;-73
2022/07/30 09:35:55;;;;;;;5.05;2.05;;;;;;;35.45;23.28;100283.03;4971295;28;20206;-73
2022/07/30 09:38:22;;;;;;;3.15;2.13;;;;;;;37.09;19.91;100290.53;4971182;28;20557;-74
2022/07/30 09:40:52;;;;;;;5.25;2.08;;;;;;;37.21;20.19;100295.75;4951335;28;20687;-74
2022/07/30 09:43:17;;;;;;;1.95;1.75;;;;;;;36.90;19.84;100293.59;4971020;28;20452;-74
2022/07/30 09:45:51;;;;;;;4.53;2.15;;;;;;;37.17;20.20;100287.41;4971167;28;20548;-74
2022/07/30 09:48:24;;;;;;;2.80;1.70;;;;;;;36.82;21.20;100292.19;4987015;28;20172;-74
2022/07/30 09:50:51;;;;;;;3.72;1.85;;;;;;;37.11;19.04;100291.91;4968338;28;20223;-74
2022/07/30 09:53:16;;;;;;;6.75;1.73;;;;;;;38.01;18.08;100294.88;4987335;28;20176;-74
2022/07/30 09:55:42;;;;;;;3.10;1.50;;;;;;;39.52;16.19;100282.19;4971266;28;20195;-74
2022/07/30 09:58:09;;;;;;;2.10;1.30;;;;;;;39.08;16.27;100290.03;4972129;28;20192;-74
2022/07/30 10:00:36;;;;;;;2.60;1.73;;;;;;;39.06;17.03;100295.66;4966281;28;20309;-74
2022/07/30 10:03:20;;;;;;;2.45;1.55;;;;;;;38.66;16.74;100294.56;4987043;28;20280;-74
2022/07/30 10:05:54;;;;;;;4.57;1.80;;;;;;;37.69;18.10;100293.91;4987191;28;20298;-73
2022/07/30 10:08:37;;;;;;;3.15;1.63;;;;;;;38.49;17.52;100294.78;4972418;28;20294;-74
2022/07/30 10:11:03;;;;;;;1.98;1.70;;;;;;;37.58;17.56;100276.16;4970247;28;20230;-74
2022/07/30 10:13:29;;;;;;;3.20;1.50;;;;;;;38.43;17.48;100292.09;4979557;28;20586;-74
2022/07/30 10:15:55;;;;;;;2.90;1.52;;;;;;;37.61;17.41;100289.84;4972593;28;20247;-74
2022/07/30 10:18:20;;;;;;;4.10;1.98;;;;;;;38.11;18.59;100284.19;4972032;28;20184;-74
2022/07/30 10:20:47;;;;;;;3.03;1.52;;;;;;;38.19;18.31;100286.34;4967469;28;20230;-74
2022/07/30 10:23:12;;;;;;;3.80;1.98;;;;;;;36.60;18.94;100286.88;4981633;28;20339;-74
2022/07/30 10:25:38;;;;;;;4.90;1.90;;;;;;;37.31;18.59;100283.22;4970787;28;20211;-74
2022/07/30 10:28:04;;;;;;;3.22;1.77;;;;;;;37.93;17.25;100272.03;4987192;28;20216;-74
2022/07/30 10:30:31;;;;;;;3.30;1.88;;;;;;;38.06;18.21;100279.63;4963673;28;20246;-74
2022/07/30 10:33:00;;;;;;;2.38;1.65;;;;;;;37.40;18.85;100280.88;4970975;28;20176;-73
2022/07/30 10:35:26;;;;;;;5.30;1.95;;;;;;;36.67;19.46;100273.28;4986873;28;20195;-73
2022/07/30 10:37:52;;;;;;;4.18;2.03;;;;;;;36.70;18.72;100274.66;4972316;28;20177;-75
2022/07/30 10:40:27;;;;;;;3.53;2.00;;;;;;;36.33;19.58;100266.25;4953132;28;20617;-74
2022/07/30 10:43:15;;;;;;;2.28;1.65;;;;;;;35.10;20.12;100265.34;4967431;28;20223;-74
2022/07/30 10:45:53;;;;;;;3.53;1.92;;;;;;;35.73;20.62;100264.44;4973468;28;20554;-74
2022/07/30 10:48:19;;;;;;;4.18;1.80;;;;;;;36.51;17.83;100269.66;4974099;28;20192;-73
2022/07/30 10:50:56;;;;;;;4.47;2.08;;;;;;;34.57;20.15;100267.34;4966898;28;20290;-73
2022/07/30 10:53:40;;;;;;;3.55;1.83;;;;;;;33.25;21.28;100254.44;4974412;28;20191;-74
2022/07/30 10:56:32;;;;;;;1.70;1.60;;;;;;;31.59;25.30;100258.94;4990262;28;20184;-74
2022/07/30 10:59:08;;;;;;;4.72;1.77;;;;;;;31.48;25.43;100250.66;4975459;28;20578;-75
2022/07/30 11:02:00;;;;;;;6.07;1.70;;;;;;;30.70;26.92;100254.44;4971248;28;20234;-74
2022/07/30 11:04:27;;;;;;;5.43;1.88;;;;;;;30.79;26.43;100247.88;4965892;28;20674;-74
2022/07/30 11:07:21;;;;;;;4.63;2.40;;;;;;;29.21;27.44;100244.38;4970775;28;20189;-74
2022/07/30 11:09:52;;;;;;;3.90;1.88;;;;;;;28.14;28.36;100244.88;4984523;28;20187;-75
2022/07/30 11:12:43;;;;;;;2.53;1.85;;;;;;;27.93;29.07;100238.63;4981075;28;20707;-74
2022/07/30 11:15:11;;;;;;;4.53;2.22;;;;;;;27.31;30.12;100234.91;4964512;28;20194;-74
2022/07/30 11:18:03;;;;;;;6.97;1.90;;;;;;;26.91;31.32;100235.38;4988820;28;20188;-74
2022/07/30 11:20:30;;;;;;;8.60;2.30;;;;;;;26.84;31.79;100237.13;4966167;28;20361;-73
2022/07/30 11:23:09;;;;;;;4.65;2.10;;;;;;;27.37;31.76;100237.59;4973828;28;20184;-74